Time;durP1;ratioP1;P1;durP2;ratioP2;P2;SDS_P1;SDS_P2;PMS_P1;PMS_P2;Temp;Humidity;BMP_temperature;BMP_pressure;BME280_temperature;BME280_humidity;BME280_pressure;Samples;Min_cycle;Max_cycle;Signal;HPM_P1;HPM_P2
2022/01/30 00:01:58;;;;;;;17.17;4.13;;;6.00;99.90;;;;;;6130682;23;20024;-85
2022/01/30 00:04:24;;;;;;;18.80;3.50;;;6.10;99.90;;;;;;6130975;23;20517;-86
2022/01/30 00:06:49;;;;;;;20.02;4.63;;;6.10;99.90;;;;;;6155653;23;20095;-85
2022/01/30 00:09:19;;;;;;;22.65;5.25;;;6.60;99.90;;;;;;6155516;23;20387;-86
2022/01/30 00:11:50;;;;;;;15.43;3.67;;;6.20;99.90;;;;;;6106528;23;20024;-85
2022/01/30 00:14:18;;;;;;;16.23;3.65;;;6.20;99.90;;;;;;6130286;23;20340;-86
2022/01/30 00:16:44;;;;;;;17.35;3.70;;;6.20;99.90;;;;;;6106766;23;20075;-86
2022/01/30 00:19:23;;;;;;;17.13;3.90;;;6.40;99.90;;;;;;6154737;23;20056;-86
2022/01/30 00:21:59;;;;;;;16.40;4.10;;;6.10;99.90;;;;;;6179365;23;20479;-86
2022/01/30 00:24:41;;;;;;;21.33;4.28;;;6.50;99.90;;;;;;6132439;23;20017;-86
2022/01/30 00:27:11;;;;;;;17.98;5.03;;;6.80;99.90;;;;;;6155071;23;20017;-85
2022/01/30 00:29:37;;;;;;;22.30;4.88;;;6.30;99.90;;;;;;6130578;23;20083;-85
2022/01/30 00:32:03;;;;;;;19.52;5.30;;;5.90;99.90;;;;;;6155456;23;20017;-85
2022/01/30 00:34:29;;;;;;;22.17;4.10;;;5.80;99.90;;;;;;6130363;23;20013;-86
2022/01/30 00:36:54;;;;;;;18.63;4.63;;;5.70;99.90;;;;;;6130220;23;20016;-85
2022/01/30 00:39:20;;;;;;;22.73;4.72;;;5.80;99.90;;;;;;6154612;23;20017;-85
2022/01/30 00:41:46;;;;;;;19.00;4.40;;;5.70;99.90;;;;;;6106776;23;20017;-86
2022/01/30 00:44:11;;;;;;;21.10;5.00;;;5.70;99.90;;;;;;6106740;23;20083;-86
2022/01/30 00:46:38;;;;;;;21.75;4.10;;;5.70;99.90;;;;;;6132399;23;20017;-86
2022/01/30 00:49:03;;;;;;;21.65;4.10;;;5.70;99.90;;;;;;6108251;23;20636;-86
2022/01/30 00:51:29;;;;;;;20.30;3.88;;;5.70;99.90;;;;;;6151611;23;20018;-85
2022/01/30 00:53:55;;;;;;;24.35;4.70;;;5.80;99.90;;;;;;6151628;23;20013;-86
2022/01/30 00:56:20;;;;;;;14.93;3.92;;;5.80;99.90;;;;;;6151586;23;20017;-86
2022/01/30 00:58:46;;;;;;;22.88;4.00;;;5.80;99.90;;;;;;6103208;23;20021;-86
2022/01/30 01:01:12;;;;;;;16.75;3.65;;;5.90;99.90;;;;;;6151275;23;20018;-85
2022/01/30 01:03:37;;;;;;;15.48;3.55;;;6.40;99.90;;;;;;6103003;23;20108;-86
2022/01/30 01:06:05;;;;;;;17.38;3.50;;;6.00;99.90;;;;;;6103024;23;20025;-86
2022/01/30 01:08:47;;;;;;;23.05;4.50;;;6.00;99.90;;;;;;6127052;23;20021;-85
2022/01/30 01:24:16;;;;;;;19.45;4.57;;;5.60;99.90;;;;;;6151698;23;20021;-86
2022/01/30 01:26:42;;;;;;;13.07;3.33;;;5.50;99.90;;;;;;6126900;23;20017;-86
2022/01/30 01:29:08;;;;;;;14.85;4.13;;;5.50;99.90;;;;;;6102202;23;20467;-86
2022/01/30 01:31:34;;;;;;;14.75;3.00;;;5.40;99.90;;;;;;6102515;23;20017;-85
2022/01/30 01:36:25;;;;;;;23.20;4.10;;;6.00;99.90;;;;;;6176462;23;20019;-85
2022/01/30 01:38:51;;;;;;;22.02;3.72;;;5.30;99.90;;;;;;6151119;23;20568;-86
2022/01/30 01:41:20;;;;;;;18.30;3.75;;;5.10;99.90;;;;;;6151458;23;20096;-86
2022/01/30 01:43:50;;;;;;;19.70;3.83;;;5.30;99.90;;;;;;6175834;23;20017;-85
2022/01/30 01:46:21;;;;;;;14.55;3.45;;;5.30;99.90;;;;;;6127090;23;20026;-85
2022/01/30 01:48:50;;;;;;;18.02;3.33;;;6.10;99.90;;;;;;6151387;23;20021;-85
2022/01/30 01:51:29;;;;;;;17.98;3.67;;;4.90;99.90;;;;;;6151440;23;20017;-86
2022/01/30 01:53:58;;;;;;;20.52;4.50;;;4.90;99.90;;;;;;6126993;23;20021;-85
2022/01/30 01:56:25;;;;;;;16.58;4.05;;;5.60;99.90;;;;;;6175440;23;20020;-85
2022/01/30 01:58:51;;;;;;;16.27;4.25;;;4.90;99.90;;;;;;6151245;23;20049;-85
2022/01/30 02:01:17;;;;;;;25.45;4.38;;;4.90;99.90;;;;;;6150697;23;20108;-85
2022/01/30 02:03:44;;;;;;;17.92;4.30;;;5.00;99.90;;;;;;6150908;23;20053;-85
2022/01/30 02:06:14;;;;;;;19.30;3.47;;;5.00;99.90;;;;;;6125554;23;20050;-85
2022/01/30 02:08:53;;;;;;;25.95;4.10;;;5.10;99.90;;;;;;6151785;23;20365;-86
2022/01/30 02:27:24;;;;;;;18.45;3.88;;;5.50;99.90;;;;;;6150448;23;20021;-86
2022/01/30 02:29:50;;;;;;;17.42;4.10;;;5.30;99.90;;;;;;6126360;23;20021;-86
2022/01/30 02:32:16;;;;;;;19.33;4.53;;;5.20;99.90;;;;;;6126078;23;20531;-86
2022/01/30 02:34:42;;;;;;;13.73;4.00;;;5.20;99.90;;;;;;6150620;23;20017;-86
2022/01/30 02:37:08;;;;;;;24.58;4.35;;;5.20;99.90;;;;;;6150898;23;20013;-86
2022/01/30 02:39:34;;;;;;;19.77;4.40;;;5.50;99.90;;;;;;6150766;23;20453;-86
2022/01/30 02:42:00;;;;;;;26.83;4.38;;;5.50;99.90;;;;;;6150541;23;20024;-86
2022/01/30 02:44:37;;;;;;;21.88;4.88;;;5.20;99.90;;;;;;6150665;23;20120;-86
2022/01/30 02:47:21;;;;;;;16.63;4.28;;;5.30;99.90;;;;;;6151230;23;20021;-86
2022/01/30 02:50:10;;;;;;;21.85;5.03;;;5.20;99.90;;;;;;6151048;23;20651;-86
2022/01/30 02:52:35;;;;;;;22.85;5.22;;;5.70;99.90;;;;;;6150853;23;20017;-86
2022/01/30 02:55:00;;;;;;;19.85;4.72;;;5.40;99.90;;;;;;6150950;23;20349;-86
2022/01/30 02:57:26;;;;;;;30.83;5.15;;;5.30;99.90;;;;;;6151097;23;20024;-85
2022/01/30 02:59:52;;;;;;;20.35;4.13;;;5.30;99.90;;;;;;6150453;23;20014;-86
2022/01/30 03:02:18;;;;;;;16.80;4.30;;;5.80;99.90;;;;;;6101411;23;20020;-86
2022/01/30 03:04:43;;;;;;;19.90;4.72;;;5.50;99.90;;;;;;6150730;23;20330;-86
2022/01/30 03:07:09;;;;;;;21.90;4.50;;;5.00;99.90;;;;;;6125609;23;20024;-86
2022/01/30 03:09:35;;;;;;;20.45;5.40;;;4.90;99.90;;;;;;6125890;23;20100;-87
2022/01/30 03:12:02;;;;;;;22.25;4.30;;;5.60;99.90;;;;;;6150900;23;20455;-86
2022/01/30 03:14:28;;;;;;;26.80;4.38;;;4.80;99.90;;;;;;6150064;23;20017;-85
2022/01/30 03:16:53;;;;;;;29.63;5.00;;;4.80;99.90;;;;;;6101540;23;20013;-86
2022/01/30 03:19:19;;;;;;;25.73;4.25;;;5.20;99.90;;;;;;6126085;23;20013;-85
2022/01/30 03:21:45;;;;;;;30.00;4.70;;;4.80;99.90;;;;;;6150473;23;20415;-86
2022/01/30 03:24:11;;;;;;;19.15;4.90;;;4.90;99.90;;;;;;6125893;23;20021;-86
2022/01/30 03:26:39;;;;;;;24.38;5.15;;;4.90;99.90;;;;;;6150248;23;20044;-85
2022/01/30 03:29:07;;;;;;;35.10;6.68;;;5.90;99.90;;;;;;6149989;23;20025;-86
2022/01/30 03:31:38;;;;;;;31.30;5.93;;;5.20;99.90;;;;;;6150432;23;20017;-86
2022/01/30 03:34:08;;;;;;;24.45;5.28;;;4.80;99.90;;;;;;6150186;23;20346;-86
2022/01/30 03:36:35;;;;;;;22.95;4.75;;;5.40;99.90;;;;;;6150246;23;20124;-86
2022/01/30 03:39:02;;;;;;;31.00;5.07;;;4.80;99.90;;;;;;6150620;23;20053;-86
2022/01/30 03:41:28;;;;;;;16.55;4.30;;;4.90;99.90;;;;;;6149951;23;20024;-86
2022/01/30 03:43:54;;;;;;;26.50;5.18;;;4.70;99.90;;;;;;6150043;23;20053;-86
2022/01/30 03:46:21;;;;;;;22.80;4.65;;;4.90;99.90;;;;;;6100915;23;20022;-86
2022/01/30 03:48:47;;;;;;;25.40;4.40;;;4.70;99.90;;;;;;6174841;23;20021;-86
2022/01/30 03:51:13;;;;;;;23.00;5.38;;;4.70;99.90;;;;;;6150288;23;20021;-86
2022/01/30 03:53:39;;;;;;;26.13;4.90;;;5.00;99.90;;;;;;6101108;23;20077;-86
2022/01/30 03:56:05;;;;;;;23.08;5.20;;;4.70;99.90;;;;;;6101406;23;20017;-86
2022/01/30 03:58:32;;;;;;;25.92;5.63;;;4.70;99.90;;;;;;6150035;23;20018;-86
2022/01/30 04:00:58;;;;;;;21.92;4.72;;;5.30;99.90;;;;;;6150027;23;20097;-86
2022/01/30 04:03:24;;;;;;;19.25;4.78;;;4.90;99.90;;;;;;6149776;23;20072;-86
2022/01/30 04:05:50;;;;;;;26.98;5.82;;;4.90;99.90;;;;;;6101209;23;20021;-86
2022/01/30 04:08:15;;;;;;;21.50;5.00;;;5.00;99.90;;;;;;6149763;23;20056;-86
2022/01/30 04:10:41;;;;;;;24.52;5.53;;;5.10;99.90;;;;;;6150107;23;20096;-86
2022/01/30 04:13:07;;;;;;;24.38;5.38;;;5.10;99.90;;;;;;6149943;23;20052;-86
2022/01/30 04:15:33;;;;;;;29.13;4.78;;;5.10;99.90;;;;;;6150557;23;20357;-86
2022/01/30 04:18:01;;;;;;;29.23;5.38;;;5.10;99.90;;;;;;6150426;23;20067;-86
2022/01/30 04:20:28;;;;;;;18.90;5.53;;;5.10;99.90;;;;;;6150901;23;20049;-86
2022/01/30 04:22:54;;;;;;;26.55;5.57;;;5.20;99.90;;;;;;6150734;23;20412;-86
2022/01/30 04:25:20;;;;;;;38.83;6.72;;;5.80;99.90;;;;;;6150577;23;20049;-86
2022/01/30 04:27:46;;;;;;;23.65;5.63;;;5.20;99.90;;;;;;6150317;23;20044;-86
2022/01/30 04:30:12;;;;;;;28.50;6.25;;;5.20;99.90;;;;;;6150552;23;20021;-86
2022/01/30 04:32:43;;;;;;;33.55;5.47;;;5.20;99.90;;;;;;6150602;23;20018;-86
2022/01/30 04:35:19;;;;;;;36.65;7.05;;;5.10;99.90;;;;;;6150833;23;20024;-86
2022/01/30 04:59:38;;;;;;;36.75;6.75;;;4.50;99.90;;;;;;6149583;23;20021;-85
2022/01/30 05:09:45;;;;;;;29.08;6.88;;;4.50;99.90;;;;;;6150110;23;20021;-86
2022/01/30 05:12:13;;;;;;;28.83;5.78;;;4.50;99.90;;;;;;6149670;23;20298;-86
2022/01/30 05:14:39;;;;;;;31.60;6.90;;;4.50;99.90;;;;;;6149781;23;20013;-85
2022/01/30 05:17:06;;;;;;;26.60;4.85;;;4.50;99.90;;;;;;6149621;23;20021;-85
2022/01/30 05:19:32;;;;;;;32.63;5.97;;;4.60;99.90;;;;;;6149386;23;20059;-85
2022/01/30 05:21:59;;;;;;;32.47;6.45;;;4.60;99.90;;;;;;6149485;23;20100;-86
2022/01/30 05:24:25;;;;;;;29.45;5.38;;;4.60;99.90;;;;;;6149765;23;20028;-85
2022/01/30 05:26:51;;;;;;;38.08;6.70;;;4.70;99.90;;;;;;6149480;23;20451;-86
2022/01/30 05:29:17;;;;;;;33.22;7.22;;;4.70;99.90;;;;;;6125498;23;20492;-86
2022/01/30 05:31:43;;;;;;;33.97;6.03;;;4.60;99.90;;;;;;6150772;23;20392;-85
2022/01/30 05:34:10;;;;;;;31.05;5.53;;;4.50;99.90;;;;;;6152197;23;20041;-86
2022/01/30 05:36:40;;;;;;;37.05;6.85;;;4.60;99.90;;;;;;6127383;23;20528;-85
2022/01/30 05:39:06;;;;;;;27.25;5.72;;;5.00;99.90;;;;;;6152763;23;20108;-85
2022/01/30 05:41:33;;;;;;;29.13;5.78;;;5.10;99.90;;;;;;6151182;23;20021;-85
2022/01/30 05:44:13;;;;;;;35.58;6.03;;;4.60;99.90;;;;;;6151486;23;20060;-85
2022/01/30 05:46:48;;;;;;;37.60;7.78;;;4.60;99.90;;;;;;6152289;23;20017;-85
2022/01/30 05:49:14;;;;;;;27.02;6.65;;;4.50;99.90;;;;;;6152161;23;20029;-86
2022/01/30 05:51:40;;;;;;;35.03;7.00;;;4.50;99.90;;;;;;6175819;23;20029;-85
2022/01/30 05:54:06;;;;;;;30.95;7.18;;;4.70;99.90;;;;;;6126626;23;20064;-85
2022/01/30 05:56:33;;;;;;;30.35;6.43;;;5.20;99.90;;;;;;6151369;23;20072;-85
2022/01/30 05:58:59;;;;;;;32.17;5.82;;;4.70;99.90;;;;;;6175821;23;20045;-85
2022/01/30 06:01:25;;;;;;;29.52;5.85;;;4.50;99.90;;;;;;6151458;23;20053;-85
2022/01/30 06:03:51;;;;;;;25.15;5.85;;;4.90;99.90;;;;;;6102883;23;20091;-85
2022/01/30 06:06:16;;;;;;;25.92;5.30;;;4.40;99.90;;;;;;6151510;23;20014;-85
2022/01/30 06:08:59;;;;;;;32.42;6.13;;;4.40;99.90;;;;;;6102052;23;20047;-85
2022/01/30 06:11:25;;;;;;;21.35;5.20;;;4.40;99.90;;;;;;6151343;23;20582;-85
2022/01/30 06:13:51;;;;;;;28.88;6.13;;;4.50;99.90;;;;;;6151031;23;20100;-85
2022/01/30 06:16:17;;;;;;;36.38;6.82;;;4.40;99.90;;;;;;6151038;23;20040;-86
2022/01/30 06:18:43;;;;;;;31.58;5.82;;;4.40;99.90;;;;;;6126274;23;20028;-85
2022/01/30 06:21:09;;;;;;;33.22;7.07;;;4.90;99.90;;;;;;6151719;23;20018;-85
2022/01/30 06:23:36;;;;;;;36.22;7.72;;;4.40;99.90;;;;;;6126410;23;20068;-86
2022/01/30 06:26:04;;;;;;;36.55;6.72;;;4.50;99.90;;;;;;6150742;23;20465;-86
2022/01/30 06:28:30;;;;;;;35.05;7.65;;;4.50;99.90;;;;;;6150544;23;20021;-87
2022/01/30 06:30:55;;;;;;;32.33;7.50;;;4.50;99.90;;;;;;6102291;23;20472;-86
2022/01/30 06:33:21;;;;;;;38.17;6.80;;;4.50;99.90;;;;;;6102220;23;20017;-86
2022/01/30 06:35:47;;;;;;;43.42;6.65;;;5.60;99.90;;;;;;6101654;23;20025;-86
2022/01/30 06:38:13;;;;;;;44.20;8.25;;;4.60;99.90;;;;;;6150629;23;20021;-86
2022/01/30 06:40:38;;;;;;;38.53;7.97;;;4.60;99.90;;;;;;6150721;23;20025;-86
2022/01/30 06:43:04;;;;;;;47.10;6.82;;;4.90;99.90;;;;;;6150592;23;20053;-86
2022/01/30 06:45:30;;;;;;;39.28;8.73;;;4.60;99.90;;;;;;6150937;23;20023;-86
2022/01/30 06:47:56;;;;;;;46.20;8.13;;;4.60;99.90;;;;;;6150309;23;20113;-90
2022/01/30 06:50:22;;;;;;;31.80;7.22;;;4.60;99.90;;;;;;6175646;23;20076;-86
2022/01/30 06:52:48;;;;;;;37.17;7.78;;;4.50;99.90;;;;;;6101883;23;20485;-86
2022/01/30 06:55:14;;;;;;;37.70;6.97;;;5.70;99.90;;;;;;6150459;23;20025;-86
2022/01/30 06:57:44;;;;;;;44.38;6.72;;;4.70;99.90;;;;;;6149471;23;20023;-86
2022/01/30 07:00:13;;;;;;;35.15;6.78;;;4.70;99.90;;;;;;6100655;23;20104;-87
2022/01/30 07:02:39;;;;;;;42.80;9.10;;;4.70;99.90;;;;;;6148971;23;20013;-87
2022/01/30 07:05:06;;;;;;;46.00;6.68;;;4.70;99.90;;;;;;6150146;23;20531;-87
2022/01/30 07:07:31;;;;;;;34.72;7.75;;;4.60;99.90;;;;;;6151357;23;20330;-86
2022/01/30 07:09:57;;;;;;;28.00;6.47;;;4.80;99.90;;;;;;6101445;23;20048;-86
2022/01/30 07:12:23;;;;;;;40.88;8.15;;;4.50;99.90;;;;;;6150072;23;20010;-86
2022/01/30 07:14:49;;;;;;;37.58;6.82;;;4.40;99.90;;;;;;6125115;23;20057;-86
2022/01/30 07:17:14;;;;;;;49.33;7.78;;;4.90;99.90;;;;;;6150530;23;20018;-86
2022/01/30 07:19:40;;;;;;;47.65;7.72;;;4.40;99.90;;;;;;6101361;23;20021;-86
2022/01/30 07:22:06;;;;;;;36.78;7.30;;;4.50;99.90;;;;;;6125703;23;20084;-86
2022/01/30 07:24:32;;;;;;;32.38;6.90;;;4.50;99.90;;;;;;6150110;23;20017;-86
2022/01/30 07:26:58;;;;;;;32.78;6.53;;;4.10;99.90;;;;;;6101349;23;20032;-86
2022/01/30 07:29:23;;;;;;;38.47;8.25;;;5.60;99.90;;;;;;6125972;23;20029;-86
2022/01/30 07:31:49;;;;;;;36.13;6.32;;;5.00;99.90;;;;;;6101163;23;20013;-86
2022/01/30 07:34:15;;;;;;;43.70;7.75;;;4.70;99.90;;;;;;6100802;23;20025;-86
2022/01/30 07:36:42;;;;;;;40.78;7.25;;;4.70;99.90;;;;;;6125493;23;20610;-86
2022/01/30 07:39:12;;;;;;;43.65;8.30;;;5.30;99.90;;;;;;6150389;23;20457;-86
2022/01/30 07:41:38;;;;;;;41.03;7.70;;;4.80;99.90;;;;;;6150236;23;20028;-86
2022/01/30 07:44:04;;;;;;;42.85;9.07;;;4.80;99.90;;;;;;6149928;23;20022;-86
2022/01/30 07:46:30;;;;;;;50.78;8.40;;;4.80;99.90;;;;;;6125191;23;20457;-86
2022/01/30 07:48:56;;;;;;;41.13;9.00;;;5.20;99.90;;;;;;6150152;23;20018;-86
2022/01/30 07:51:22;;;;;;;36.17;7.60;;;4.80;99.90;;;;;;6149381;23;20527;-86
2022/01/30 07:53:48;;;;;;;47.20;8.40;;;4.80;99.90;;;;;;6101100;23;20017;-86
2022/01/30 07:56:14;;;;;;;36.80;7.30;;;4.80;99.90;;;;;;6150276;23;20021;-86
2022/01/30 07:58:40;;;;;;;54.35;9.57;;;5.80;99.90;;;;;;6150271;23;20049;-86
2022/01/30 08:01:05;;;;;;;40.13;7.13;;;4.80;99.90;;;;;;6149711;23;20068;-86
2022/01/30 08:03:31;;;;;;;35.13;7.70;;;4.80;99.90;;;;;;6150064;23;20529;-86
2022/01/30 08:05:57;;;;;;;52.22;7.88;;;6.00;99.90;;;;;;6125808;23;20017;-86
2022/01/30 08:08:23;;;;;;;39.28;7.63;;;4.90;99.90;;;;;;6101429;23;20026;-86
2022/01/30 08:10:48;;;;;;;39.78;8.18;;;4.90;99.90;;;;;;6101176;23;20025;-85
2022/01/30 08:13:16;;;;;;;39.58;8.07;;;4.90;99.90;;;;;;6150249;23;20083;-86
2022/01/30 08:15:42;;;;;;;28.95;6.55;;;5.40;99.90;;;;;;6149670;23;20017;-86
2022/01/30 08:18:08;;;;;;;34.15;6.70;;;5.10;99.90;;;;;;6125741;23;20021;-86
2022/01/30 08:20:34;;;;;;;32.65;7.90;;;5.10;99.90;;;;;;6125191;23;20028;-86
2022/01/30 08:23:01;;;;;;;34.78;6.60;;;5.20;99.90;;;;;;6150187;23;20018;-86
2022/01/30 08:25:26;;;;;;;30.52;6.43;;;5.20;99.90;;;;;;6126226;23;20013;-86
2022/01/30 08:27:53;;;;;;;39.47;7.30;;;5.20;99.90;;;;;;6101354;23;20112;-86
2022/01/30 08:30:19;;;;;;;34.28;8.18;;;5.20;99.90;;;;;;6149637;23;20490;-86
2022/01/30 08:32:48;;;;;;;40.55;6.80;;;5.30;99.90;;;;;;6125087;23;20100;-86
2022/01/30 08:35:16;;;;;;;36.58;6.65;;;5.30;99.90;;;;;;6149952;23;20020;-86
2022/01/30 08:37:41;;;;;;;32.08;6.75;;;5.30;99.90;;;;;;6149179;23;20318;-90
2022/01/30 08:40:19;;;;;;;33.63;7.47;;;6.20;99.90;;;;;;6125626;23;20101;-86
2022/01/30 08:42:46;;;;;;;32.28;6.20;;;5.20;99.90;;;;;;6149839;23;20016;-86
2022/01/30 08:45:14;;;;;;;29.38;6.10;;;5.40;99.90;;;;;;6151106;23;20017;-86
2022/01/30 08:47:45;;;;;;;32.97;5.45;;;5.50;99.90;;;;;;6152676;23;20022;-86
2022/01/30 08:50:12;;;;;;;33.47;6.50;;;5.50;99.90;;;;;;6150002;23;20080;-85
2022/01/30 08:52:38;;;;;;;30.73;7.68;;;5.50;99.90;;;;;;6125973;23;20025;-84
2022/01/30 08:55:07;;;;;;;31.33;6.28;;;5.50;99.90;;;;;;6150783;23;20014;-85
2022/01/30 08:57:33;;;;;;;37.80;6.47;;;5.60;99.90;;;;;;6126209;23;20423;-86
2022/01/30 08:59:59;;;;;;;38.83;7.15;;;5.60;99.90;;;;;;6151455;23;20014;-86
2022/01/30 09:02:28;;;;;;;27.60;6.70;;;6.40;99.90;;;;;;6126215;23;20013;-84
2022/01/30 09:04:54;;;;;;;31.35;6.95;;;6.70;99.90;;;;;;6101656;23;20068;-84
2022/01/30 09:07:20;;;;;;;25.10;6.60;;;5.90;99.90;;;;;;6127279;23;20021;-85
2022/01/30 09:09:46;;;;;;;34.35;6.50;;;6.10;99.90;;;;;;6127246;23;20364;-84
2022/01/30 09:12:12;;;;;;;32.08;6.82;;;6.30;99.90;;;;;;6151625;23;20032;-83
2022/01/30 09:14:40;;;;;;;25.77;5.28;;;6.50;99.90;;;;;;6125361;23;20569;-84
2022/01/30 09:17:13;;;;;;;37.45;6.75;;;6.70;99.90;;;;;;6151531;23;20148;-84
2022/01/30 09:19:44;;;;;;;33.08;7.30;;;6.90;99.90;;;;;;6125960;23;20028;-84
2022/01/30 09:22:12;;;;;;;22.55;6.10;;;7.00;99.90;;;;;;6127342;23;20021;-84
2022/01/30 09:24:38;;;;;;;33.08;6.55;;;7.20;99.90;;;;;;6127068;23;20027;-83
2022/01/30 09:27:05;;;;;;;31.77;7.65;;;7.40;99.90;;;;;;6150654;23;20023;-84
2022/01/30 09:29:32;;;;;;;39.08;7.93;;;7.60;99.90;;;;;;6150424;23;20052;-83
2022/01/30 09:31:59;;;;;;;29.55;7.32;;;7.70;99.90;;;;;;6151378;23;20018;-83
2022/01/30 09:34:24;;;;;;;40.50;8.43;;;7.60;99.90;;;;;;6127842;23;20014;-83
2022/01/30 09:36:50;;;;;;;36.17;8.02;;;7.30;99.90;;;;;;6127840;23;20021;-83
2022/01/30 09:39:16;;;;;;;32.15;7.00;;;7.40;99.90;;;;;;6152295;23;20049;-83
2022/01/30 09:41:46;;;;;;;36.42;7.22;;;7.50;99.90;;;;;;6126791;23;20036;-83
2022/01/30 09:44:12;;;;;;;32.20;6.97;;;7.40;99.90;;;;;;6151521;23;20024;-83
2022/01/30 09:46:42;;;;;;;42.75;8.07;;;7.40;99.90;;;;;;6126873;23;20022;-83
2022/01/30 09:49:09;;;;;;;31.55;7.63;;;7.50;99.90;;;;;;6127198;23;20436;-83
2022/01/30 09:51:45;;;;;;;33.08;7.20;;;7.50;99.90;;;;;;6127702;23;20018;-83
2022/01/30 09:54:12;;;;;;;39.95;7.65;;;7.50;99.90;;;;;;6152397;23;20075;-83
2022/01/30 09:56:38;;;;;;;35.85;7.78;;;7.60;99.90;;;;;;6151920;23;20017;-83
2022/01/30 09:59:05;;;;;;;35.55;7.32;;;7.70;99.90;;;;;;6151423;23;20020;-83
2022/01/30 10:01:36;;;;;;;35.50;7.40;;;7.50;99.90;;;;;;6151680;23;20481;-83
2022/01/30 10:04:04;;;;;;;35.40;6.82;;;7.50;99.90;;;;;;6151144;23;20017;-83
2022/01/30 10:06:34;;;;;;;34.60;6.85;;;8.20;99.90;;;;;;6151799;23;20024;-83
2022/01/30 10:09:27;;;;;;;27.75;7.32;;;7.50;99.90;;;;;;6151106;23;20029;-84
2022/01/30 10:12:10;;;;;;;;;;;7.50;99.90;;;;;;6127558;23;20061;-83
2022/01/30 10:14:59;;;;;;;29.15;6.60;;;7.60;99.90;;;;;;6125842;23;19947;-83
2022/01/30 10:17:32;;;;;;;28.67;7.47;;;7.60;99.90;;;;;;6150351;23;20039;-83
2022/01/30 10:20:13;;;;;;;31.75;7.82;;;7.60;99.90;;;;;;6151513;23;20381;-84
2022/01/30 10:22:58;;;;;;;37.90;7.47;;;7.70;99.90;;;;;;6150837;23;20014;-83
2022/01/30 10:25:30;;;;;;;33.28;6.82;;;7.80;99.90;;;;;;6151733;23;20066;-83
2022/01/30 10:28:29;;;;;;;42.00;7.18;;;7.70;99.90;;;;;;6151294;23;20009;-83
2022/01/30 10:31:07;;;;;;;24.45;6.55;;;7.90;99.90;;;;;;6151279;23;20105;-83
2022/01/30 10:33:51;;;;;;;32.13;6.35;;;7.80;99.90;;;;;;6125850;23;20460;-83
2022/01/30 10:36:30;;;;;;;32.40;6.18;;;7.80;99.90;;;;;;6152005;23;20014;-82
2022/01/30 10:39:12;;;;;;;28.70;7.30;;;7.70;99.90;;;;;;6150712;23;20013;-84
2022/01/30 10:41:53;;;;;;;34.23;6.43;;;7.80;99.90;;;;;;6150596;23;20022;-84
2022/01/30 10:44:19;;;;;;;26.17;6.65;;;7.60;99.90;;;;;;6150515;23;20245;-84
2022/01/30 10:46:51;;;;;;;36.53;6.57;;;7.60;99.90;;;;;;6150321;23;20096;-83
2022/01/30 10:49:19;;;;;;;27.77;7.63;;;7.30;99.90;;;;;;6151489;23;20032;-84
2022/01/30 10:51:59;;;;;;;27.25;7.43;;;7.30;99.90;;;;;;6150897;23;20059;-83
2022/01/30 10:54:29;;;;;;;33.25;6.97;;;7.20;99.90;;;;;;6175901;23;20013;-84
2022/01/30 10:57:24;;;;;;;26.65;6.38;;;7.20;99.90;;;;;;6126373;23;20491;-84
2022/01/30 10:59:53;;;;;;;31.70;6.03;;;7.30;99.90;;;;;;6144424;23;20024;-84
2022/01/30 11:02:23;;;;;;;29.85;6.57;;;7.30;99.90;;;;;;6102511;23;20018;-84
2022/01/30 11:04:50;;;;;;;27.05;6.53;;;7.20;99.90;;;;;;6150395;23;20080;-84
2022/01/30 11:07:20;;;;;;;28.38;5.60;;;7.30;99.90;;;;;;6126720;23;20333;-83
2022/01/30 11:10:13;;;;;;;31.92;6.57;;;7.30;99.90;;;;;;6150558;23;20355;-84
2022/01/30 11:12:56;;;;;;;39.53;6.18;;;7.30;99.90;;;;;;6150955;23;20018;-83
2022/01/30 11:17:57;;;;;;;24.58;6.70;;;7.40;99.90;;;;;;6150102;23;20037;-84
2022/01/30 11:20:25;;;;;;;41.72;6.95;;;7.30;99.90;;;;;;6151005;23;20018;-84
2022/01/30 11:22:54;;;;;;;26.98;6.57;;;7.10;99.90;;;;;;6150627;23;20021;-84
2022/01/30 11:25:22;;;;;;;28.98;6.45;;;7.00;99.90;;;;;;6149518;23;20025;-84
2022/01/30 11:27:49;;;;;;;28.65;6.88;;;7.00;99.90;;;;;;6173401;23;20018;-85
2022/01/30 11:30:15;;;;;;;30.73;5.88;;;7.00;99.90;;;;;;6148870;23;20017;-86
2022/01/30 11:32:41;;;;;;;46.05;7.82;;;7.00;99.90;;;;;;6121510;23;20380;-85
2022/01/30 11:35:07;;;;;;;32.22;7.70;;;6.90;99.90;;;;;;6146525;23;20021;-85
2022/01/30 11:37:36;;;;;;;35.05;7.32;;;6.90;99.90;;;;;;6147247;23;20650;-85
2022/01/30 11:40:12;;;;;;;28.50;6.63;;;7.00;99.90;;;;;;6147295;23;20022;-85
2022/01/30 11:42:40;;;;;;;36.38;6.82;;;6.80;99.90;;;;;;6147177;23;20009;-85
2022/01/30 11:45:14;;;;;;;31.90;6.47;;;6.70;99.90;;;;;;6122327;23;20017;-85
2022/01/30 11:48:06;;;;;;;40.17;7.35;;;6.60;99.90;;;;;;6147964;23;20056;-85
2022/01/30 11:50:34;;;;;;;33.80;7.28;;;6.70;99.90;;;;;;6147450;23;20684;-85
2022/01/30 11:53:25;;;;;;;31.33;6.68;;;6.70;99.90;;;;;;6145827;23;20356;-85
2022/01/30 11:55:57;;;;;;;39.63;7.03;;;6.80;99.90;;;;;;6145005;23;20026;-84
2022/01/30 11:58:41;;;;;;;27.48;7.28;;;6.90;99.90;;;;;;6146247;23;20009;-85
2022/01/30 12:01:35;;;;;;;31.10;6.20;;;7.00;99.90;;;;;;6145737;23;20432;-85
2022/01/30 12:04:04;;;;;;;28.42;6.63;;;7.10;99.90;;;;;;6146683;23;20033;-85
2022/01/30 12:06:47;;;;;;;27.50;6.07;;;7.30;99.90;;;;;;6145927;23;20348;-85
2022/01/30 12:09:19;;;;;;;27.08;5.45;;;7.40;99.90;;;;;;6147101;23;20029;-85
2022/01/30 12:11:59;;;;;;;24.95;6.28;;;7.50;99.90;;;;;;6145940;23;20053;-85
2022/01/30 12:14:29;;;;;;;27.30;5.88;;;7.20;99.90;;;;;;6122278;23;20024;-85
2022/01/30 12:17:03;;;;;;;33.03;6.95;;;7.20;99.90;;;;;;6147213;23;20088;-85
2022/01/30 12:19:37;;;;;;;34.03;6.10;;;7.20;99.90;;;;;;6122496;23;20017;-85
2022/01/30 12:22:30;;;;;;;32.25;6.18;;;7.20;99.90;;;;;;6146866;23;20021;-85
2022/01/30 12:25:26;;;;;;;29.83;6.55;;;7.10;99.90;;;;;;6110376;23;20080;-85
2022/01/30 12:27:57;;;;;;;37.25;7.45;;;7.10;99.90;;;;;;6145609;23;20115;-85
2022/01/30 12:30:43;;;;;;;35.63;6.60;;;7.10;99.90;;;;;;6121724;23;20523;-84
2022/01/30 12:33:38;;;;;;;27.65;7.57;;;7.10;99.90;;;;;;6120418;23;20025;-85
2022/01/30 12:36:13;;;;;;;36.78;6.13;;;7.10;99.90;;;;;;6147173;23;20048;-84
2022/01/30 12:38:39;;;;;;;32.45;7.38;;;7.10;99.90;;;;;;6122425;23;20028;-84
2022/01/30 12:41:24;;;;;;;24.65;7.10;;;7.40;99.90;;;;;;6147229;23;20029;-84
2022/01/30 12:43:55;;;;;;;33.72;6.53;;;7.50;99.90;;;;;;6146824;23;20029;-84
2022/01/30 12:46:35;;;;;;;25.73;6.53;;;7.60;99.90;;;;;;6146698;23;20029;-84
2022/01/30 12:49:12;;;;;;;28.05;5.30;;;7.70;99.90;;;;;;6122120;23;20469;-85
2022/01/30 12:51:41;;;;;;;24.40;5.47;;;7.60;99.90;;;;;;6147451;23;20025;-85
2022/01/30 12:54:07;;;;;;;25.45;6.60;;;7.40;99.90;;;;;;6146810;23;20048;-85
2022/01/30 12:56:33;;;;;;;31.48;6.57;;;7.40;99.90;;;;;;6146382;23;20017;-85
2022/01/30 12:59:06;;;;;;;26.83;7.13;;;7.30;99.90;;;;;;6146225;23;20064;-85
2022/01/30 13:01:34;;;;;;;33.42;6.40;;;7.20;99.90;;;;;;6146167;23;20030;-85
2022/01/30 13:04:02;;;;;;;34.03;7.07;;;7.10;99.90;;;;;;6121737;23;20026;-85
2022/01/30 13:06:43;;;;;;;38.60;6.78;;;7.10;99.90;;;;;;6146733;23;20017;-85
2022/01/30 13:09:11;;;;;;;39.25;6.63;;;7.10;99.90;;;;;;6121862;23;20026;-84
2022/01/30 13:11:37;;;;;;;36.38;6.68;;;7.20;99.90;;;;;;6121430;23;20067;-83
2022/01/30 13:14:08;;;;;;;27.85;6.03;;;7.60;99.90;;;;;;6171498;23;20021;-85
2022/01/30 13:16:43;;;;;;;32.05;6.30;;;7.30;99.90;;;;;;6146560;23;20014;-85
2022/01/30 13:19:11;;;;;;;27.08;5.25;;;7.30;99.90;;;;;;6146571;23;20025;-85
2022/01/30 13:21:38;;;;;;;25.50;5.78;;;7.30;99.90;;;;;;6145679;23;20028;-86
2022/01/30 13:24:06;;;;;;;32.45;6.55;;;7.30;99.90;;;;;;6146673;23;20021;-86
2022/01/30 13:26:35;;;;;;;26.08;6.20;;;7.30;99.90;;;;;;6146143;23;20026;-85
2022/01/30 13:29:02;;;;;;;29.33;6.25;;;7.10;99.90;;;;;;6146063;23;20013;-86
2022/01/30 13:31:31;;;;;;;30.25;5.80;;;7.20;99.90;;;;;;6121783;23;20028;-87
2022/01/30 13:34:16;;;;;;;29.38;5.70;;;7.10;99.90;;;;;;6146968;23;20452;-85
2022/01/30 13:36:43;;;;;;;28.00;7.25;;;7.20;99.90;;;;;;6147106;23;20021;-85
2022/01/30 13:39:15;;;;;;;31.50;6.05;;;7.20;99.90;;;;;;6138820;23;20013;-87
2022/01/30 13:41:48;;;;;;;29.80;6.82;;;7.20;99.90;;;;;;6128316;23;20022;-88
2022/01/30 13:44:23;;;;;;;29.85;6.18;;;7.20;99.90;;;;;;6134015;23;20235;-86
2022/01/30 13:47:03;;;;;;;32.30;7.30;;;7.30;99.90;;;;;;6133406;23;20029;-87
2022/01/30 13:49:29;;;;;;;29.98;5.95;;;7.00;99.90;;;;;;6140639;23;20124;-87
2022/01/30 13:52:10;;;;;;;29.67;5.95;;;6.90;99.90;;;;;;6146475;23;20935;-88
2022/01/30 13:54:37;;;;;;;41.55;8.55;;;6.80;99.90;;;;;;6147858;23;20017;-87
2022/01/30 13:57:10;;;;;;;29.45;7.10;;;6.80;99.90;;;;;;6147031;23;20641;-87
2022/01/30 13:59:37;;;;;;;26.13;6.47;;;7.00;99.90;;;;;;6148090;23;20052;-87
2022/01/30 14:02:06;;;;;;;31.65;5.80;;;6.80;99.90;;;;;;6147286;23;20021;-87
2022/01/30 14:04:35;;;;;;;25.48;6.22;;;6.70;99.90;;;;;;6147702;23;20025;-88